createdAt,value
2023-02-15T00:00:08.386Z,19.60
2023-02-15T00:01:08.549Z,20.00
2023-02-15T00:02:08.795Z,19.80
2023-02-15T00:03:08.911Z,21.90
2023-02-15T00:04:09.049Z,19.60
2023-02-15T00:05:09.245Z,20.50
2023-02-15T00:06:09.411Z,20.40
2023-02-15T00:07:09.583Z,19.90
2023-02-15T00:08:09.770Z,20.50
2023-02-15T00:09:09.942Z,20.20
2023-02-15T00:10:17.117Z,19.90
2023-02-15T00:11:10.289Z,19.00
2023-02-15T00:12:10.466Z,19.00
2023-02-15T00:13:10.630Z,19.20
2023-02-15T00:14:10.804Z,20.40
2023-02-15T00:15:10.965Z,21.10
2023-02-15T00:16:11.207Z,20.80
2023-02-15T00:17:11.302Z,19.40
2023-02-15T00:18:11.468Z,19.20
2023-02-15T00:19:11.626Z,20.50
2023-02-15T00:20:11.809Z,20.90
2023-02-15T00:21:11.978Z,19.60
2023-02-15T00:22:12.169Z,19.70
2023-02-15T00:23:12.340Z,20.00
2023-02-15T00:24:12.534Z,21.00
2023-02-15T00:25:12.679Z,20.40
2023-02-15T00:26:12.889Z,21.50
2023-02-15T00:27:13.048Z,19.40
2023-02-15T00:28:13.229Z,21.00
2023-02-15T00:29:13.369Z,21.00
2023-02-15T00:30:13.571Z,20.00
2023-02-15T00:31:13.780Z,19.50
2023-02-15T00:32:13.890Z,20.00
2023-02-15T00:33:14.062Z,19.50
2023-02-15T00:34:14.218Z,20.30
2023-02-15T00:35:14.384Z,21.10
2023-02-15T00:36:14.560Z,20.40
2023-02-15T00:37:14.740Z,20.30
2023-02-15T00:38:14.864Z,20.00
2023-02-15T00:39:15.033Z,20.00
2023-02-15T00:40:15.217Z,20.40
2023-02-15T00:41:15.355Z,19.30
2023-02-15T00:42:15.518Z,20.70
2023-02-15T00:43:15.692Z,19.80
2023-02-15T00:44:15.854Z,19.60
2023-02-15T00:45:17.360Z,20.00
2023-02-15T00:46:16.219Z,19.50
2023-02-15T00:47:16.356Z,21.50
2023-02-15T00:48:16.520Z,19.00
2023-02-15T00:49:16.694Z,20.90
2023-02-15T00:50:16.873Z,21.30
2023-02-15T00:51:17.042Z,20.50
2023-02-15T00:52:17.204Z,19.90
2023-02-15T00:53:17.363Z,19.80
2023-02-15T00:54:17.560Z,20.10
2023-02-15T00:55:17.715Z,18.70
2023-02-15T00:56:17.889Z,19.10
2023-02-15T00:57:18.056Z,21.10
2023-02-15T00:58:18.214Z,20.60
2023-02-15T00:59:18.417Z,20.20
2023-02-15T01:00:18.564Z,21.50
2023-02-15T01:01:18.778Z,19.80
2023-02-15T01:02:18.931Z,21.30
2023-02-15T01:03:19.084Z,20.60
2023-02-15T01:04:19.277Z,20.50
2023-02-15T01:05:19.441Z,22.40
2023-02-15T01:06:19.615Z,19.90
2023-02-15T01:07:19.788Z,20.60
2023-02-15T01:08:19.947Z,22.00
2023-02-15T01:09:20.161Z,21.00
2023-02-15T01:10:20.290Z,20.90
2023-02-15T01:11:20.457Z,21.00
2023-02-15T01:12:20.613Z,21.20
2023-02-15T01:13:20.834Z,21.70
2023-02-15T01:14:20.965Z,19.30
2023-02-15T01:15:21.128Z,21.50
2023-02-15T01:16:21.369Z,21.90
2023-02-15T01:17:21.489Z,20.80
2023-02-15T01:18:21.665Z,19.50
2023-02-15T01:19:21.825Z,21.40
2023-02-15T01:20:21.994Z,21.00
2023-02-15T01:21:22.162Z,20.90
2023-02-15T01:22:22.322Z,21.30
2023-02-15T01:23:22.527Z,21.70
2023-02-15T01:24:22.682Z,20.30
2023-02-15T01:25:22.854Z,21.40
2023-02-15T01:26:23.014Z,21.70
2023-02-15T01:27:23.174Z,21.60
2023-02-15T01:28:23.365Z,19.80
2023-02-15T01:29:23.544Z,19.80
2023-02-15T01:30:23.729Z,20.50
2023-02-15T01:31:23.975Z,21.30
2023-02-15T01:32:24.037Z,21.60
2023-02-15T01:33:24.217Z,20.50
2023-02-15T01:34:24.407Z,21.20
2023-02-15T01:35:24.584Z,21.40
2023-02-15T01:36:24.724Z,21.20
2023-02-15T01:37:24.897Z,21.40
2023-02-15T01:38:25.071Z,19.70
2023-02-15T01:39:25.237Z,20.30
2023-02-15T01:40:25.418Z,22.40
2023-02-15T01:41:25.631Z,21.00
2023-02-15T01:42:25.760Z,20.90
2023-02-15T01:43:25.968Z,21.30
2023-02-15T01:44:26.097Z,22.00
2023-02-15T01:45:26.298Z,22.00
2023-02-15T01:46:26.476Z,21.00
2023-02-15T01:48:26.816Z,20.00
2023-02-15T01:49:26.948Z,21.80
2023-02-15T01:50:27.125Z,20.60
2023-02-15T01:51:27.287Z,20.50
2023-02-15T01:52:27.450Z,21.70
2023-02-15T01:53:27.662Z,22.10
2023-02-15T01:54:27.812Z,22.00
2023-02-15T01:55:27.962Z,22.00
2023-02-15T01:56:28.147Z,21.30
2023-02-15T01:57:28.295Z,20.90
2023-02-15T01:58:28.481Z,20.00
2023-02-15T01:59:28.689Z,21.50
2023-02-15T02:00:28.814Z,20.30
2023-02-15T02:01:29.041Z,23.10
2023-02-15T02:02:29.206Z,22.50
2023-02-15T02:03:29.368Z,21.30
2023-02-15T02:04:29.489Z,21.90
2023-02-15T02:05:29.652Z,21.10
2023-02-15T02:06:29.804Z,21.70
2023-02-15T02:07:29.984Z,22.30
2023-02-15T02:08:30.171Z,22.20
2023-02-15T02:09:30.297Z,21.70
2023-02-15T02:10:30.477Z,21.20
2023-02-15T02:11:30.657Z,21.20
2023-02-15T02:12:30.846Z,22.20
2023-02-15T02:13:31.003Z,21.20
2023-02-15T02:14:31.184Z,22.00
2023-02-15T02:15:31.354Z,21.70
2023-02-15T02:16:31.513Z,20.10
2023-02-15T02:17:31.711Z,20.40
2023-02-15T02:18:31.901Z,22.00
2023-02-15T02:19:32.052Z,21.30
2023-02-15T02:20:32.219Z,21.30
2023-02-15T02:21:32.399Z,21.20
2023-02-15T02:22:32.559Z,22.00
2023-02-15T02:23:32.743Z,22.20
2023-02-15T02:24:32.908Z,21.40
2023-02-15T02:25:33.072Z,22.20
2023-02-15T02:26:33.236Z,22.00
2023-02-15T02:27:33.425Z,21.20
2023-02-15T02:28:33.580Z,22.40
2023-02-15T02:29:33.755Z,21.10
2023-02-15T02:30:33.996Z,20.70
2023-02-15T02:31:34.235Z,22.90
2023-02-15T02:32:34.305Z,22.10
2023-02-15T02:33:34.479Z,22.10
2023-02-15T02:34:34.644Z,21.70
2023-02-15T02:35:34.810Z,22.00
2023-02-15T02:36:34.994Z,21.60
2023-02-15T02:37:35.155Z,21.80
2023-02-15T02:38:35.316Z,19.90
2023-02-15T02:39:35.502Z,22.60
2023-02-15T02:40:35.658Z,22.70
2023-02-15T02:41:35.854Z,21.10
2023-02-15T02:42:36.023Z,22.90
2023-02-15T02:43:36.182Z,22.40
2023-02-15T02:44:36.341Z,21.50
2023-02-15T02:45:36.512Z,21.70
2023-02-15T02:46:36.727Z,22.90
2023-02-15T02:47:36.862Z,21.90
2023-02-15T02:48:37.033Z,21.90
2023-02-15T02:49:37.217Z,20.10
2023-02-15T02:50:37.349Z,22.50
2023-02-15T02:51:37.539Z,21.70
2023-02-15T02:52:37.693Z,21.80
2023-02-15T02:53:37.879Z,22.70
2023-02-15T02:54:38.029Z,21.10
2023-02-15T02:55:38.250Z,22.70
2023-02-15T02:56:38.372Z,20.20
2023-02-15T02:57:38.554Z,20.90
2023-02-15T02:58:38.715Z,21.20
2023-02-15T02:59:38.883Z,20.00
2023-02-15T03:00:39.066Z,20.80
2023-02-15T03:01:39.296Z,21.30
2023-02-15T03:02:39.495Z,20.90
2023-02-15T03:03:39.559Z,21.20
2023-02-15T03:04:39.719Z,20.80
2023-02-15T03:05:39.869Z,21.00
2023-02-15T03:06:40.034Z,22.60
2023-02-15T03:07:40.221Z,22.20
2023-02-15T03:08:40.389Z,20.60
2023-02-15T03:09:40.580Z,21.00
2023-02-15T03:10:40.704Z,21.10
2023-02-15T03:11:40.883Z,20.80
2023-02-15T03:12:41.050Z,19.60
2023-02-15T03:13:41.206Z,18.80
2023-02-15T03:14:41.363Z,20.00
2023-02-15T03:15:41.529Z,21.10
2023-02-15T03:16:41.713Z,20.30
2023-02-15T03:17:41.875Z,20.50
2023-02-15T03:18:42.044Z,20.10
2023-02-15T03:19:42.202Z,20.50
2023-02-15T03:20:42.358Z,21.70
2023-02-15T03:21:42.548Z,20.00
2023-02-15T03:22:42.703Z,20.60
2023-02-15T03:23:42.896Z,19.70
2023-02-15T03:24:43.048Z,20.50
2023-02-15T03:25:43.219Z,19.60
2023-02-15T03:26:43.375Z,18.30
2023-02-15T03:27:43.566Z,20.40
2023-02-15T03:28:43.732Z,20.40
2023-02-15T03:29:43.913Z,18.70
2023-02-15T03:30:44.067Z,19.30
2023-02-15T03:31:44.325Z,19.20
2023-02-15T03:32:44.426Z,19.50
2023-02-15T03:33:44.611Z,19.00
2023-02-15T03:34:44.756Z,19.90
2023-02-15T03:35:44.957Z,20.70
2023-02-15T03:36:45.088Z,19.80
2023-02-15T03:37:45.262Z,20.70
2023-02-15T03:38:45.440Z,19.70
2023-02-15T03:39:45.619Z,19.70
2023-02-15T03:40:45.797Z,20.40
2023-02-15T03:41:45.950Z,20.20
2023-02-15T03:42:46.124Z,19.40
2023-02-15T03:43:46.317Z,19.90
2023-02-15T03:44:46.442Z,18.90
2023-02-15T03:45:46.610Z,19.60
2023-02-15T03:46:46.819Z,19.00
2023-02-15T03:47:46.990Z,18.80
2023-02-15T03:48:47.157Z,20.30
2023-02-15T03:49:47.329Z,19.10
2023-02-15T03:50:47.500Z,20.90
2023-02-15T03:51:47.695Z,19.30
2023-02-15T03:52:47.840Z,19.40
2023-02-15T03:53:48.011Z,21.50
2023-02-15T03:54:48.173Z,18.50
2023-02-15T03:55:48.345Z,19.60
2023-02-15T03:56:48.538Z,18.50
2023-02-15T03:57:48.710Z,19.30
2023-02-15T03:58:48.860Z,18.20
2023-02-15T03:59:49.056Z,19.90
2023-02-15T04:00:49.221Z,19.40
2023-02-15T04:01:49.371Z,18.10
2023-02-15T04:02:49.548Z,20.30
2023-02-15T04:03:49.697Z,18.40
2023-02-15T04:04:49.884Z,18.20
2023-02-15T04:05:50.012Z,20.20
2023-02-15T04:06:50.204Z,18.80
2023-02-15T04:07:50.352Z,20.00
2023-02-15T04:08:50.521Z,19.20
2023-02-15T04:09:50.722Z,17.60
2023-02-15T04:10:50.837Z,18.30
2023-02-15T04:11:51.061Z,18.80
2023-02-15T04:12:51.165Z,19.30
2023-02-15T04:13:51.338Z,20.80
2023-02-15T04:14:51.504Z,18.30
2023-02-15T04:15:51.666Z,19.10
2023-02-15T04:16:51.981Z,20.20
2023-02-15T04:17:52.009Z,18.80
2023-02-15T04:18:52.192Z,20.20
2023-02-15T04:19:52.359Z,17.40
2023-02-15T04:20:52.543Z,19.00
2023-02-15T04:21:52.692Z,18.50
2023-02-15T04:22:52.861Z,18.00
2023-02-15T04:23:53.035Z,19.20
2023-02-15T04:24:53.210Z,18.30
2023-02-15T04:25:53.395Z,18.70
2023-02-15T04:26:53.558Z,19.20
2023-02-15T04:27:53.721Z,18.70
2023-02-15T04:28:53.890Z,19.70
2023-02-15T04:29:54.092Z,19.90
2023-02-15T04:30:54.366Z,18.70
2023-02-15T04:31:54.503Z,20.10
2023-02-15T04:32:54.621Z,18.30
2023-02-15T04:33:54.757Z,19.20
2023-02-15T04:34:54.921Z,19.40
2023-02-15T04:35:55.088Z,18.40
2023-02-15T04:36:55.241Z,19.20
2023-02-15T04:37:55.427Z,20.30
2023-02-15T04:38:55.595Z,19.70
2023-02-15T04:39:55.764Z,19.40
2023-02-15T04:40:55.930Z,19.00
2023-02-15T04:41:56.088Z,19.10
2023-02-15T04:42:56.268Z,20.20
2023-02-15T04:43:56.425Z,18.80
2023-02-15T04:44:56.589Z,19.60
2023-02-15T04:45:56.783Z,18.10
2023-02-15T04:46:56.951Z,19.40
2023-02-15T04:47:57.129Z,20.10
2023-02-15T04:48:57.310Z,19.00
2023-02-15T04:49:58.271Z,18.50
2023-02-15T04:50:57.631Z,19.20
2023-02-15T04:51:57.842Z,19.60
2023-02-15T04:52:57.951Z,19.90
2023-02-15T04:53:58.112Z,20.00
2023-02-15T04:54:58.272Z,20.20
2023-02-15T04:55:58.455Z,20.20
2023-02-15T04:56:58.622Z,21.10
2023-02-15T04:57:58.775Z,21.60
2023-02-15T04:58:58.977Z,20.80
2023-02-15T04:59:59.130Z,21.10
2023-02-15T05:00:59.368Z,20.20
2023-02-15T05:01:59.449Z,18.60
2023-02-15T05:02:59.631Z,22.90
2023-02-15T05:03:59.802Z,26.60
2023-02-15T05:04:59.945Z,23.90
2023-02-15T05:06:00.473Z,22.40
2023-02-15T05:07:00.307Z,22.90
2023-02-15T05:08:00.434Z,23.10
2023-02-15T05:09:00.606Z,22.20
2023-02-15T05:10:00.782Z,23.10
2023-02-15T05:11:00.954Z,28.00
2023-02-15T05:12:01.112Z,29.30
2023-02-15T05:13:01.287Z,25.60
2023-02-15T05:14:01.465Z,26.70
2023-02-15T05:15:01.656Z,29.70
2023-02-15T05:16:02.091Z,29.20
2023-02-15T05:17:01.970Z,28.50
2023-02-15T05:18:02.118Z,30.90
2023-02-15T05:19:02.291Z,30.70
2023-02-15T05:20:02.481Z,30.60
2023-02-15T05:21:02.636Z,32.20
2023-02-15T05:22:02.806Z,33.70
2023-02-15T05:23:02.978Z,29.30
2023-02-15T05:24:03.145Z,33.30
2023-02-15T05:25:03.334Z,33.50
2023-02-15T05:26:03.757Z,32.20
2023-02-15T05:27:03.684Z,33.30
2023-02-15T05:28:05.227Z,32.50
2023-02-15T05:29:04.032Z,33.50
2023-02-15T05:30:04.264Z,34.00
2023-02-15T05:31:04.763Z,35.40
2023-02-15T05:32:04.621Z,34.90
2023-02-15T05:33:04.738Z,36.00
2023-02-15T05:34:04.884Z,34.30
2023-02-15T05:35:05.058Z,33.00
2023-02-15T05:36:05.597Z,34.60
2023-02-15T05:37:05.407Z,35.70
2023-02-15T05:38:05.574Z,32.90
2023-02-15T05:39:05.776Z,33.30
2023-02-15T05:40:05.938Z,33.50
2023-02-15T05:41:06.098Z,35.10
2023-02-15T05:42:06.280Z,32.90
2023-02-15T05:43:06.430Z,32.80
2023-02-15T05:44:06.606Z,34.20
2023-02-15T05:45:06.764Z,33.70
2023-02-15T05:46:06.977Z,33.70
2023-02-15T05:47:07.109Z,32.90
2023-02-15T05:48:07.289Z,34.00
2023-02-15T05:49:07.440Z,33.80
2023-02-15T05:50:07.609Z,34.50
2023-02-15T05:51:07.788Z,34.00
2023-02-15T05:52:07.964Z,34.40
2023-02-15T05:53:08.110Z,33.70
2023-02-15T05:54:08.270Z,36.10
2023-02-15T05:55:08.441Z,35.80
2023-02-15T05:56:08.607Z,35.50
2023-02-15T05:57:08.785Z,35.10
2023-02-15T05:58:08.939Z,32.30
2023-02-15T05:59:09.112Z,35.40
2023-02-15T06:00:09.266Z,34.00
2023-02-15T06:01:09.442Z,33.50
2023-02-15T06:02:09.686Z,34.50
2023-02-15T06:03:09.813Z,35.20
2023-02-15T06:04:09.957Z,33.50
2023-02-15T06:05:10.130Z,36.00
2023-02-15T06:06:10.288Z,35.90
2023-02-15T06:07:10.472Z,34.00
2023-02-15T06:08:10.631Z,35.10
2023-02-15T06:09:10.804Z,35.20
2023-02-15T06:10:10.983Z,34.40
2023-02-15T06:11:11.133Z,36.20
2023-02-15T06:12:11.306Z,34.40
2023-02-15T06:13:11.468Z,34.30
2023-02-15T06:14:11.635Z,32.80
2023-02-15T06:15:11.794Z,34.90
2023-02-15T06:16:11.984Z,32.80
2023-02-15T06:17:12.163Z,32.00
2023-02-15T06:18:12.306Z,34.50
2023-02-15T06:19:12.472Z,32.30
2023-02-15T06:20:12.626Z,35.20
2023-02-15T06:21:12.805Z,32.20
2023-02-15T06:22:12.997Z,33.00
2023-02-15T06:23:13.144Z,16.10
2023-02-15T06:24:13.308Z,17.50
2023-02-15T06:25:13.485Z,22.50
2023-02-15T06:26:13.669Z,22.40
2023-02-15T06:27:13.880Z,19.70
2023-02-15T06:28:14.030Z,20.90
2023-02-15T06:29:14.228Z,19.50
2023-02-15T06:30:14.467Z,19.70
2023-02-15T06:31:14.699Z,21.60
2023-02-15T06:32:14.770Z,20.40
2023-02-15T06:33:14.920Z,20.30
2023-02-15T06:34:15.065Z,19.50
2023-02-15T06:35:15.302Z,20.10
2023-02-15T06:36:15.417Z,18.50
2023-02-15T06:37:15.644Z,18.20
2023-02-15T06:38:15.798Z,20.80
2023-02-15T06:39:15.986Z,19.10
2023-02-15T06:40:16.131Z,25.40
2023-02-15T06:41:16.317Z,23.20
2023-02-15T06:42:16.523Z,24.00
2023-02-15T06:43:16.669Z,26.80
2023-02-15T06:44:16.865Z,25.30
2023-02-15T06:45:17.046Z,27.20
2023-02-15T06:46:17.261Z,28.90
2023-02-15T06:47:17.426Z,27.70
2023-02-15T06:48:17.569Z,25.00
2023-02-15T06:49:17.761Z,25.70
2023-02-15T06:50:17.940Z,25.60
2023-02-15T06:51:18.133Z,26.60
2023-02-15T06:52:18.302Z,27.90
2023-02-15T06:53:18.481Z,27.60
2023-02-15T06:54:18.611Z,28.00
2023-02-15T06:55:18.802Z,28.30
2023-02-15T06:56:18.939Z,28.00
2023-02-15T06:57:19.131Z,27.80
2023-02-15T06:58:19.266Z,29.60
2023-02-15T06:59:19.443Z,28.80
2023-02-15T07:00:19.592Z,30.10
2023-02-15T07:01:19.815Z,27.80
2023-02-15T07:02:19.942Z,28.90
2023-02-15T07:03:20.092Z,29.50
2023-02-15T07:04:20.267Z,26.90
2023-02-15T07:05:20.425Z,28.10
2023-02-15T07:06:20.602Z,29.50
2023-02-15T07:07:20.809Z,29.00
2023-02-15T07:08:20.945Z,28.60
2023-02-15T07:09:21.110Z,29.20
2023-02-15T07:10:21.278Z,27.60
2023-02-15T07:11:21.451Z,28.00
2023-02-15T07:12:21.629Z,29.60
2023-02-15T07:13:21.782Z,28.60
2023-02-15T07:14:21.945Z,28.50
2023-02-15T07:15:22.108Z,28.40
2023-02-15T07:16:22.408Z,30.50
2023-02-15T07:17:37.476Z,29.50
2023-02-15T07:18:23.619Z,29.70
2023-02-15T07:19:22.795Z,28.20
2023-02-15T07:20:22.944Z,29.30
2023-02-15T07:21:23.129Z,29.30
2023-02-15T07:22:23.367Z,29.70
2023-02-15T07:23:23.458Z,30.00
2023-02-15T07:24:23.639Z,28.20
2023-02-15T07:25:23.826Z,29.20
2023-02-15T07:26:24.010Z,30.00
2023-02-15T07:27:24.155Z,29.10
2023-02-15T07:28:24.299Z,28.90
2023-02-15T07:29:24.501Z,32.20
2023-02-15T07:30:24.695Z,29.50
2023-02-15T07:31:24.864Z,29.60
2023-02-15T07:32:25.043Z,27.20
2023-02-15T07:33:25.215Z,29.90
2023-02-15T07:34:25.365Z,29.30
2023-02-15T07:35:25.546Z,29.70
2023-02-15T07:36:25.715Z,30.50
2023-02-15T07:37:25.863Z,27.70
2023-02-15T07:38:26.033Z,29.40
2023-02-15T07:39:26.184Z,28.50
2023-02-15T07:40:26.338Z,28.10
2023-02-15T07:41:26.571Z,30.40
2023-02-15T07:42:26.726Z,28.90
2023-02-15T07:43:26.862Z,28.30
2023-02-15T07:44:27.027Z,29.40
2023-02-15T07:45:27.194Z,27.80
2023-02-15T07:46:27.388Z,30.10
2023-02-15T07:47:27.519Z,28.90
2023-02-15T07:48:27.717Z,28.90
2023-02-15T07:49:27.889Z,29.90
2023-02-15T07:50:28.041Z,29.30
2023-02-15T07:51:28.222Z,29.00
2023-02-15T07:52:28.365Z,29.60
2023-02-15T07:53:28.525Z,28.70
2023-02-15T07:54:28.685Z,30.80
2023-02-15T07:55:28.873Z,32.50
2023-02-15T07:56:29.032Z,29.90
2023-02-15T07:57:29.188Z,28.30
2023-02-15T07:58:29.346Z,29.50
2023-02-15T07:59:29.545Z,32.10
2023-02-15T08:00:29.695Z,30.80
2023-02-15T08:01:29.859Z,30.00
2023-02-15T08:02:30.099Z,30.70
2023-02-15T08:03:30.384Z,31.10
2023-02-15T08:04:30.372Z,29.50
2023-02-15T08:05:30.548Z,28.80
2023-02-15T08:06:30.709Z,30.70
2023-02-15T08:07:30.904Z,29.80
2023-02-15T08:08:31.202Z,28.60
2023-02-15T08:09:31.250Z,31.40
2023-02-15T08:10:31.422Z,30.10
2023-02-15T08:11:31.597Z,30.60
2023-02-15T08:12:31.741Z,29.50
2023-02-15T08:13:31.911Z,29.40
2023-02-15T08:14:32.088Z,32.50
2023-02-15T08:15:32.280Z,30.90
2023-02-15T08:16:32.484Z,28.50
2023-02-15T08:17:32.664Z,30.20
2023-02-15T08:18:32.792Z,30.90
2023-02-15T08:19:32.966Z,30.50
2023-02-15T08:20:33.165Z,30.70
2023-02-15T08:21:33.302Z,29.50
2023-02-15T08:22:33.453Z,29.60
2023-02-15T08:23:33.628Z,28.60
2023-02-15T08:24:33.838Z,30.60
2023-02-15T08:25:35.347Z,28.20
2023-02-15T08:26:34.146Z,30.80
2023-02-15T08:27:34.380Z,31.60
2023-02-15T08:28:34.501Z,28.90
2023-02-15T08:29:34.682Z,30.40
2023-02-15T08:30:36.371Z,28.70
2023-02-15T08:31:35.161Z,30.10
2023-02-15T08:32:35.159Z,31.40
2023-02-15T08:33:35.385Z,29.00
2023-02-15T08:34:35.530Z,29.30
2023-02-15T08:35:35.676Z,29.70
2023-02-15T08:36:35.827Z,30.50
2023-02-15T08:37:36.022Z,30.90
2023-02-15T08:38:36.162Z,28.80
2023-02-15T08:39:36.366Z,29.00
2023-02-15T08:40:36.544Z,29.20
2023-02-15T08:41:36.727Z,30.10
2023-02-15T08:42:36.863Z,31.40
2023-02-15T08:43:37.059Z,30.30
2023-02-15T08:44:37.224Z,28.10
2023-02-15T08:45:37.434Z,29.30
2023-02-15T08:46:37.573Z,28.10
2023-02-15T08:47:37.752Z,28.60
2023-02-15T08:48:37.935Z,30.00
2023-02-15T08:49:38.155Z,29.10
2023-02-15T08:50:38.294Z,28.40
2023-02-15T08:51:38.504Z,28.80
2023-02-15T08:52:38.858Z,28.90
2023-02-15T08:53:38.833Z,29.00
2023-02-15T08:54:39.034Z,28.60
2023-02-15T08:55:39.193Z,29.90
2023-02-15T08:56:39.394Z,30.10
2023-02-15T08:57:39.624Z,26.30
2023-02-15T08:58:39.743Z,27.90
2023-02-15T08:59:39.947Z,28.10
2023-02-15T09:00:40.094Z,28.70
2023-02-15T09:01:40.346Z,29.30
2023-02-15T09:02:40.536Z,28.20
2023-02-15T09:03:40.653Z,29.00
2023-02-15T09:04:40.813Z,29.70
2023-02-15T09:05:40.988Z,28.10
2023-02-15T09:06:41.172Z,27.70
2023-02-15T09:07:41.342Z,28.10
2023-02-15T09:08:41.495Z,28.40
2023-02-15T09:09:41.690Z,28.10
2023-02-15T09:10:41.836Z,28.80
2023-02-15T09:11:42.017Z,27.60
2023-02-15T09:12:42.225Z,30.00
2023-02-15T09:13:42.376Z,29.40
2023-02-15T09:14:42.567Z,28.60
2023-02-15T09:15:42.721Z,28.60
2023-02-15T09:16:42.974Z,28.50
2023-02-15T09:17:43.096Z,26.90
2023-02-15T09:18:43.254Z,27.80
2023-02-15T09:19:43.438Z,27.10
2023-02-15T09:20:43.592Z,27.30
2023-02-15T09:21:43.775Z,27.50
2023-02-15T09:22:43.977Z,28.40
2023-02-15T09:23:44.151Z,29.60
2023-02-15T09:24:44.301Z,27.60
2023-02-15T09:25:44.446Z,29.60
2023-02-15T09:26:44.639Z,27.50
2023-02-15T09:27:44.856Z,29.40
2023-02-15T09:28:45.019Z,28.50
2023-02-15T09:29:45.274Z,29.30
2023-02-15T09:30:45.420Z,28.70
2023-02-15T09:31:45.871Z,30.20
2023-02-15T09:32:45.707Z,29.70
2023-02-15T09:33:45.880Z,28.70
2023-02-15T09:34:46.029Z,26.00
2023-02-15T09:35:46.236Z,27.60
2023-02-15T09:36:46.406Z,30.40
2023-02-15T09:37:46.586Z,28.80
2023-02-15T09:38:46.775Z,27.80
2023-02-15T09:39:48.860Z,29.10
2023-02-15T09:40:47.101Z,29.30
2023-02-15T09:41:47.250Z,28.70
2023-02-15T09:42:47.463Z,29.40
2023-02-15T09:43:47.606Z,28.70
2023-02-15T09:44:47.790Z,27.40
2023-02-15T09:45:48.052Z,27.90
2023-02-15T09:46:48.153Z,28.70
2023-02-15T09:47:48.350Z,27.00
2023-02-15T09:48:48.502Z,26.30
2023-02-15T09:49:48.686Z,28.80
2023-02-15T09:50:48.885Z,29.20
2023-02-15T09:51:49.031Z,31.80
2023-02-15T09:52:49.241Z,29.40
2023-02-15T09:53:49.381Z,31.70
2023-02-15T09:54:49.593Z,31.70
2023-02-15T09:55:49.752Z,30.30
2023-02-15T09:56:49.949Z,31.10
2023-02-15T09:57:50.103Z,28.30
2023-02-15T09:58:50.283Z,30.70
2023-02-15T09:59:50.426Z,30.20
2023-02-15T10:00:50.629Z,31.50
2023-02-15T10:01:50.830Z,30.30
2023-02-15T10:02:50.981Z,31.00
2023-02-15T10:03:51.148Z,31.50
2023-02-15T10:04:51.343Z,30.40
2023-02-15T10:05:51.447Z,31.90
2023-02-15T10:06:51.646Z,31.00
2023-02-15T10:07:51.829Z,30.90
2023-02-15T10:08:52.054Z,33.40
2023-02-15T10:09:52.189Z,30.50
2023-02-15T10:10:52.383Z,30.10
2023-02-15T10:11:52.872Z,29.20
2023-02-15T10:12:52.713Z,31.80
2023-02-15T10:13:52.924Z,30.70
2023-02-15T10:14:53.071Z,31.40
2023-02-15T10:15:53.294Z,30.60
2023-02-15T10:16:53.463Z,31.70
2023-02-15T10:17:53.564Z,29.50
2023-02-15T10:18:53.732Z,29.00
2023-02-15T10:19:53.922Z,30.70
2023-02-15T10:20:54.100Z,30.90
2023-02-15T10:21:54.254Z,29.70
2023-02-15T10:22:54.433Z,30.50
2023-02-15T10:23:54.629Z,31.80
2023-02-15T10:24:54.823Z,29.60
2023-02-15T10:25:54.977Z,30.60
2023-02-15T10:26:55.164Z,30.20
2023-02-15T10:27:55.360Z,30.60
2023-02-15T10:28:55.577Z,30.20
2023-02-15T10:29:55.789Z,31.50
2023-02-15T10:30:56.158Z,30.70
2023-02-15T10:31:56.176Z,31.80
2023-02-15T10:32:56.274Z,29.40
2023-02-15T10:33:56.454Z,29.10
2023-02-15T10:34:56.607Z,29.80
2023-02-15T10:35:56.763Z,28.90
2023-02-15T10:36:56.964Z,30.80
2023-02-15T10:37:57.135Z,31.10
2023-02-15T10:38:57.435Z,29.60
2023-02-15T10:39:57.465Z,29.70
2023-02-15T10:40:57.635Z,29.50
2023-02-15T10:41:57.795Z,29.80
2023-02-15T10:42:57.973Z,31.60
2023-02-15T10:43:58.162Z,30.00
2023-02-15T10:44:58.322Z,30.50
2023-02-15T10:45:58.499Z,30.90
2023-02-15T10:46:58.665Z,30.40
2023-02-15T10:47:58.855Z,29.60
2023-02-15T10:48:59.027Z,29.30
2023-02-15T10:49:59.214Z,29.30
2023-02-15T10:50:59.399Z,28.60
2023-02-15T10:51:59.558Z,29.50
2023-02-15T10:52:59.732Z,29.40
2023-02-15T10:53:59.908Z,28.60
2023-02-15T10:55:00.131Z,28.10
2023-02-15T10:56:00.243Z,28.40
2023-02-15T10:57:00.418Z,27.90
2023-02-15T10:58:01.430Z,28.20
2023-02-15T10:59:00.780Z,27.40
2023-02-15T11:00:00.972Z,26.20
2023-02-15T11:01:01.691Z,26.80
2023-02-15T11:02:01.324Z,26.00
2023-02-15T11:03:01.521Z,26.70
2023-02-15T11:04:01.660Z,28.70
2023-02-15T11:05:01.870Z,27.30
2023-02-15T11:06:01.995Z,25.00
2023-02-15T11:07:02.172Z,24.60
2023-02-15T11:08:02.342Z,25.80
2023-02-15T11:09:02.513Z,25.50
2023-02-15T11:10:02.706Z,25.90
2023-02-15T11:11:04.221Z,23.80
2023-02-15T11:12:03.081Z,25.70
2023-02-15T11:13:03.245Z,24.90
2023-02-15T11:14:03.435Z,25.30
2023-02-15T11:15:03.613Z,25.10
2023-02-15T11:16:03.819Z,22.50
2023-02-15T11:17:03.942Z,24.10
2023-02-15T11:18:04.117Z,22.00
2023-02-15T11:19:04.303Z,21.50
2023-02-15T11:20:04.488Z,21.70
2023-02-15T11:21:04.826Z,23.10
2023-02-15T11:22:04.788Z,22.80
2023-02-15T11:23:04.967Z,21.60
2023-02-15T11:24:05.156Z,21.70
2023-02-15T11:25:05.351Z,22.60
2023-02-15T11:26:05.542Z,20.80
2023-02-15T11:27:05.844Z,21.00
2023-02-15T11:28:05.864Z,21.00
2023-02-15T11:29:06.050Z,16.90
2023-02-15T11:30:06.232Z,17.10
2023-02-15T11:31:06.881Z,16.20
2023-02-15T11:32:06.633Z,13.80
2023-02-15T11:33:07.232Z,13.60
2023-02-15T11:34:06.941Z,15.00
2023-02-15T11:35:07.130Z,14.90
2023-02-15T11:36:07.313Z,12.60
2023-02-15T11:37:07.503Z,14.00
2023-02-15T11:38:07.623Z,13.70
2023-02-15T11:39:07.802Z,13.30
2023-02-15T11:40:07.991Z,14.80
2023-02-15T11:41:08.143Z,13.80
2023-02-15T11:42:08.318Z,14.40
2023-02-15T11:43:08.504Z,13.40
2023-02-15T11:44:08.829Z,14.70
2023-02-15T11:45:08.863Z,12.40
2023-02-15T11:46:10.748Z,14.00
2023-02-15T11:47:09.185Z,14.40
2023-02-15T11:48:09.372Z,13.50
2023-02-15T11:49:09.544Z,13.10
2023-02-15T11:50:09.714Z,14.00
2023-02-15T11:51:09.905Z,13.60
2023-02-15T11:52:10.073Z,12.50
2023-02-15T11:53:10.278Z,11.00
2023-02-15T11:54:10.416Z,10.80
2023-02-15T11:55:10.589Z,11.30
2023-02-15T11:56:10.817Z,12.30
2023-02-15T11:57:10.963Z,11.70
2023-02-15T11:58:11.142Z,11.30
2023-02-15T11:59:11.353Z,12.10
2023-02-15T12:00:11.508Z,12.20
2023-02-15T12:01:11.683Z,18.30
2023-02-15T12:02:11.882Z,19.80
2023-02-15T12:03:12.023Z,17.00
2023-02-15T12:04:12.239Z,14.40
2023-02-15T12:05:12.389Z,12.90
2023-02-15T12:06:12.609Z,12.70
2023-02-15T12:07:12.822Z,10.70
2023-02-15T12:08:12.911Z,10.90
2023-02-15T12:09:13.090Z,11.10
2023-02-15T12:10:13.332Z,11.10
2023-02-15T12:11:20.506Z,10.30
2023-02-15T12:12:13.662Z,11.20
2023-02-15T12:13:13.808Z,13.70
2023-02-15T12:14:14.009Z,11.60
2023-02-15T12:15:14.165Z,11.70
2023-02-15T12:16:14.442Z,11.20
2023-02-15T12:17:14.744Z,10.60
2023-02-15T12:18:14.704Z,10.30
2023-02-15T12:19:14.853Z,11.50
2023-02-15T12:20:15.021Z,13.00
2023-02-15T12:21:15.452Z,10.20
2023-02-15T12:22:15.403Z,10.70
2023-02-15T12:23:15.533Z,10.30
2023-02-15T12:24:15.748Z,11.30
2023-02-15T12:25:15.901Z,11.50
2023-02-15T12:26:16.518Z,12.00
2023-02-15T12:27:16.242Z,10.30
2023-02-15T12:28:16.532Z,12.00
2023-02-15T12:29:16.555Z,11.20
2023-02-15T12:30:16.881Z,10.60
2023-02-15T12:31:17.040Z,10.00
2023-02-15T12:32:17.171Z,11.30
2023-02-15T12:33:17.228Z,9.60
2023-02-15T12:34:17.399Z,12.00
2023-02-15T12:35:17.590Z,9.90
2023-02-15T12:36:17.754Z,10.00
2023-02-15T12:37:17.955Z,10.90
2023-02-15T12:38:18.125Z,9.60
2023-02-15T12:39:18.299Z,10.00
2023-02-15T12:40:18.473Z,9.30
2023-02-15T12:41:18.648Z,9.70
2023-02-15T12:42:18.852Z,9.00
2023-02-15T12:43:19.004Z,9.90
2023-02-15T12:44:19.186Z,9.80
2023-02-15T12:45:19.504Z,9.10
2023-02-15T12:46:19.599Z,9.10
2023-02-15T12:47:19.717Z,9.00
2023-02-15T12:48:19.927Z,9.20
2023-02-15T12:49:21.346Z,9.50
2023-02-15T12:50:20.248Z,8.90
2023-02-15T12:51:20.442Z,8.80
2023-02-15T12:52:20.604Z,8.60
2023-02-15T12:53:20.768Z,8.80
2023-02-15T12:54:23.286Z,8.70
2023-02-15T12:55:21.176Z,9.40
2023-02-15T12:56:23.939Z,9.60